sensor_id;sensor_type;location;lat;lon;timestamp;temperature;humidity
10062;DHT22;5070;52.382;5.270;2023-04-03T00:01:21;18.00;76.30
10062;DHT22;5070;52.382;5.270;2023-04-03T00:03:49;18.00;76.20
10062;DHT22;5070;52.382;5.270;2023-04-03T00:06:18;18.00;75.90
10062;DHT22;5070;52.382;5.270;2023-04-03T00:08:50;18.00;76.00
10062;DHT22;5070;52.382;5.270;2023-04-03T00:11:21;18.00;76.00
10062;DHT22;5070;52.382;5.270;2023-04-03T00:13:52;17.90;75.90
10062;DHT22;5070;52.382;5.270;2023-04-03T00:16:21;17.90;75.80
10062;DHT22;5070;52.382;5.270;2023-04-03T00:18:49;17.90;75.60
10062;DHT22;5070;52.382;5.270;2023-04-03T00:21:23;17.90;76.20
10062;DHT22;5070;52.382;5.270;2023-04-03T00:23:51;17.90;76.20
10062;DHT22;5070;52.382;5.270;2023-04-03T00:26:19;17.90;75.60
10062;DHT22;5070;52.382;5.270;2023-04-03T00:28:47;17.90;75.00
10062;DHT22;5070;52.382;5.270;2023-04-03T00:31:15;17.80;75.40
10062;DHT22;5070;52.382;5.270;2023-04-03T00:33:45;17.80;74.80
10062;DHT22;5070;52.382;5.270;2023-04-03T00:36:13;17.80;75.00
10062;DHT22;5070;52.382;5.270;2023-04-03T00:38:42;17.80;74.60
10062;DHT22;5070;52.382;5.270;2023-04-03T00:41:11;17.80;74.70
10062;DHT22;5070;52.382;5.270;2023-04-03T00:43:39;17.80;74.80
10062;DHT22;5070;52.382;5.270;2023-04-03T00:46:07;17.80;74.60
10062;DHT22;5070;52.382;5.270;2023-04-03T00:48:39;17.70;74.30
10062;DHT22;5070;52.382;5.270;2023-04-03T00:51:13;17.70;74.50
10062;DHT22;5070;52.382;5.270;2023-04-03T00:53:46;17.70;74.40
10062;DHT22;5070;52.382;5.270;2023-04-03T00:56:18;17.70;74.20
10062;DHT22;5070;52.382;5.270;2023-04-03T00:58:51;17.70;74.00
10062;DHT22;5070;52.382;5.270;2023-04-03T01:01:22;17.70;73.90
10062;DHT22;5070;52.382;5.270;2023-04-03T01:03:51;17.70;73.90
10062;DHT22;5070;52.382;5.270;2023-04-03T01:06:26;17.60;73.80
10062;DHT22;5070;52.382;5.270;2023-04-03T01:09:00;17.60;73.80
10062;DHT22;5070;52.382;5.270;2023-04-03T01:11:28;17.60;73.70
10062;DHT22;5070;52.382;5.270;2023-04-03T01:13:57;17.60;73.80
10062;DHT22;5070;52.382;5.270;2023-04-03T01:16:25;17.60;73.80
10062;DHT22;5070;52.382;5.270;2023-04-03T01:18:54;17.60;73.10
10062;DHT22;5070;52.382;5.270;2023-04-03T01:22:02;17.60;73.30
10062;DHT22;5070;52.382;5.270;2023-04-03T01:24:35;17.60;73.60
10062;DHT22;5070;52.382;5.270;2023-04-03T01:27:09;17.50;73.10
10062;DHT22;5070;52.382;5.270;2023-04-03T01:29:39;17.50;73.00
10062;DHT22;5070;52.382;5.270;2023-04-03T01:32:09;17.50;72.70
10062;DHT22;5070;52.382;5.270;2023-04-03T01:34:37;17.50;72.70
10062;DHT22;5070;52.382;5.270;2023-04-03T01:37:05;17.50;72.80
10062;DHT22;5070;52.382;5.270;2023-04-03T01:39:33;17.50;72.80
10062;DHT22;5070;52.382;5.270;2023-04-03T01:42:01;17.50;72.70
10062;DHT22;5070;52.382;5.270;2023-04-03T01:44:34;17.50;72.70
10062;DHT22;5070;52.382;5.270;2023-04-03T01:47:04;17.50;72.60
10062;DHT22;5070;52.382;5.270;2023-04-03T01:49:34;17.40;72.70
10062;DHT22;5070;52.382;5.270;2023-04-03T01:52:02;17.40;72.50
10062;DHT22;5070;52.382;5.270;2023-04-03T01:54:30;17.40;72.40
10062;DHT22;5070;52.382;5.270;2023-04-03T01:56:58;17.40;72.10
10062;DHT22;5070;52.382;5.270;2023-04-03T01:59:26;17.40;71.80
10062;DHT22;5070;52.382;5.270;2023-04-03T02:01:54;17.40;72.10
10062;DHT22;5070;52.382;5.270;2023-04-03T02:04:23;17.40;71.50
10062;DHT22;5070;52.382;5.270;2023-04-03T02:06:52;17.40;71.70
10062;DHT22;5070;52.382;5.270;2023-04-03T02:09:20;17.30;71.50
10062;DHT22;5070;52.382;5.270;2023-04-03T02:11:48;17.30;71.50
10062;DHT22;5070;52.382;5.270;2023-04-03T02:14:16;17.30;71.20
10062;DHT22;5070;52.382;5.270;2023-04-03T02:16:44;17.30;71.50
10062;DHT22;5070;52.382;5.270;2023-04-03T02:19:13;17.30;71.50
10062;DHT22;5070;52.382;5.270;2023-04-03T02:21:41;17.30;71.20
10062;DHT22;5070;52.382;5.270;2023-04-03T02:24:11;17.30;71.50
10062;DHT22;5070;52.382;5.270;2023-04-03T02:26:39;17.30;71.20
10062;DHT22;5070;52.382;5.270;2023-04-03T02:29:08;17.30;71.20
10062;DHT22;5070;52.382;5.270;2023-04-03T02:31:39;17.30;70.90
10062;DHT22;5070;52.382;5.270;2023-04-03T02:34:07;17.30;71.20
10062;DHT22;5070;52.382;5.270;2023-04-03T02:36:36;17.20;70.80
10062;DHT22;5070;52.382;5.270;2023-04-03T02:39:08;17.20;70.80
10062;DHT22;5070;52.382;5.270;2023-04-03T02:41:37;17.20;70.60
10062;DHT22;5070;52.382;5.270;2023-04-03T02:44:11;17.20;70.70
10062;DHT22;5070;52.382;5.270;2023-04-03T02:46:39;17.20;71.40
10062;DHT22;5070;52.382;5.270;2023-04-03T02:49:07;17.20;70.50
10062;DHT22;5070;52.382;5.270;2023-04-03T02:51:36;17.20;70.50
10062;DHT22;5070;52.382;5.270;2023-04-03T02:54:04;17.10;70.20
10062;DHT22;5070;52.382;5.270;2023-04-03T02:56:36;17.10;70.10
10062;DHT22;5070;52.382;5.270;2023-04-03T02:59:05;17.10;70.20
10062;DHT22;5070;52.382;5.270;2023-04-03T03:01:36;17.10;70.10
10062;DHT22;5070;52.382;5.270;2023-04-03T03:04:04;17.10;70.10
10062;DHT22;5070;52.382;5.270;2023-04-03T03:06:32;17.10;70.00
10062;DHT22;5070;52.382;5.270;2023-04-03T03:09:00;17.10;70.10
10062;DHT22;5070;52.382;5.270;2023-04-03T03:11:28;17.10;69.90
10062;DHT22;5070;52.382;5.270;2023-04-03T03:13:57;17.00;69.60
10062;DHT22;5070;52.382;5.270;2023-04-03T03:16:25;17.00;70.00
10062;DHT22;5070;52.382;5.270;2023-04-03T03:18:55;17.00;69.70
10062;DHT22;5070;52.382;5.270;2023-04-03T03:21:24;17.00;69.60
10062;DHT22;5070;52.382;5.270;2023-04-03T03:23:52;17.00;69.20
10062;DHT22;5070;52.382;5.270;2023-04-03T03:26:21;17.00;69.40
10062;DHT22;5070;52.382;5.270;2023-04-03T03:28:49;17.00;69.80
10062;DHT22;5070;52.382;5.270;2023-04-03T03:31:19;17.00;69.50
10062;DHT22;5070;52.382;5.270;2023-04-03T03:33:47;17.00;68.90
10062;DHT22;5070;52.382;5.270;2023-04-03T03:36:16;16.90;68.90
10062;DHT22;5070;52.382;5.270;2023-04-03T03:38:45;16.90;69.00
10062;DHT22;5070;52.382;5.270;2023-04-03T03:41:13;17.00;68.90
10062;DHT22;5070;52.382;5.270;2023-04-03T03:43:43;16.90;69.00
10062;DHT22;5070;52.382;5.270;2023-04-03T03:46:13;16.90;69.00
10062;DHT22;5070;52.382;5.270;2023-04-03T03:48:43;16.90;69.20
10062;DHT22;5070;52.382;5.270;2023-04-03T03:51:11;16.90;69.00
10062;DHT22;5070;52.382;5.270;2023-04-03T03:53:39;16.90;69.20
10062;DHT22;5070;52.382;5.270;2023-04-03T03:56:14;16.90;68.80
10062;DHT22;5070;52.382;5.270;2023-04-03T03:58:45;16.90;68.50
10062;DHT22;5070;52.382;5.270;2023-04-03T04:01:13;16.80;68.60
10062;DHT22;5070;52.382;5.270;2023-04-03T04:03:47;16.90;68.80
10062;DHT22;5070;52.382;5.270;2023-04-03T04:06:19;16.80;68.50
10062;DHT22;5070;52.382;5.270;2023-04-03T04:08:47;16.80;68.50
10062;DHT22;5070;52.382;5.270;2023-04-03T04:11:28;16.80;68.50
10062;DHT22;5070;52.382;5.270;2023-04-03T04:13:56;16.80;68.60
10062;DHT22;5070;52.382;5.270;2023-04-03T04:16:27;16.80;68.20
10062;DHT22;5070;52.382;5.270;2023-04-03T04:19:07;16.90;68.20
10062;DHT22;5070;52.382;5.270;2023-04-03T04:21:36;16.90;68.20
10062;DHT22;5070;52.382;5.270;2023-04-03T04:24:06;16.90;68.20
10062;DHT22;5070;52.382;5.270;2023-04-03T04:26:34;16.90;67.70
10062;DHT22;5070;52.382;5.270;2023-04-03T04:29:03;16.90;67.60
10062;DHT22;5070;52.382;5.270;2023-04-03T04:31:33;16.90;67.50
10062;DHT22;5070;52.382;5.270;2023-04-03T04:34:03;16.90;67.40
10062;DHT22;5070;52.382;5.270;2023-04-03T04:36:31;17.00;67.40
10062;DHT22;5070;52.382;5.270;2023-04-03T04:38:59;17.00;67.20
10062;DHT22;5070;52.382;5.270;2023-04-03T04:41:28;17.00;67.20
10062;DHT22;5070;52.382;5.270;2023-04-03T04:43:56;17.00;67.10
10062;DHT22;5070;52.382;5.270;2023-04-03T04:46:25;17.00;67.00
10062;DHT22;5070;52.382;5.270;2023-04-03T04:48:57;17.00;66.90
10062;DHT22;5070;52.382;5.270;2023-04-03T04:51:29;17.00;66.50
10062;DHT22;5070;52.382;5.270;2023-04-03T04:54:15;17.00;68.50
10062;DHT22;5070;52.382;5.270;2023-04-03T04:56:45;17.00;66.90
10062;DHT22;5070;52.382;5.270;2023-04-03T04:59:13;17.00;67.40
10062;DHT22;5070;52.382;5.270;2023-04-03T05:01:42;17.00;67.10
10062;DHT22;5070;52.382;5.270;2023-04-03T05:04:14;16.90;67.10
10062;DHT22;5070;52.382;5.270;2023-04-03T05:06:46;16.90;67.10
10062;DHT22;5070;52.382;5.270;2023-04-03T05:09:19;16.90;66.90
10062;DHT22;5070;52.382;5.270;2023-04-03T05:11:49;16.90;67.60
10062;DHT22;5070;52.382;5.270;2023-04-03T05:14:20;16.90;67.10
10062;DHT22;5070;52.382;5.270;2023-04-03T05:16:49;16.90;67.50
10062;DHT22;5070;52.382;5.270;2023-04-03T05:19:21;16.90;67.40
10062;DHT22;5070;52.382;5.270;2023-04-03T05:21:52;16.90;67.10
10062;DHT22;5070;52.382;5.270;2023-04-03T05:24:23;16.90;67.50
10062;DHT22;5070;52.382;5.270;2023-04-03T05:26:53;16.90;66.70
10062;DHT22;5070;52.382;5.270;2023-04-03T05:29:21;16.90;67.40
10062;DHT22;5070;52.382;5.270;2023-04-03T05:31:50;17.00;66.40
10062;DHT22;5070;52.382;5.270;2023-04-03T05:34:18;17.00;66.40
10062;DHT22;5070;52.382;5.270;2023-04-03T05:36:52;17.00;66.40
10062;DHT22;5070;52.382;5.270;2023-04-03T05:39:21;17.00;65.80
10062;DHT22;5070;52.382;5.270;2023-04-03T05:41:50;17.00;65.80
10062;DHT22;5070;52.382;5.270;2023-04-03T05:44:18;17.00;65.90
10062;DHT22;5070;52.382;5.270;2023-04-03T05:46:48;17.10;65.90
10062;DHT22;5070;52.382;5.270;2023-04-03T05:49:16;17.10;65.80
10062;DHT22;5070;52.382;5.270;2023-04-03T05:51:44;17.10;65.90
10062;DHT22;5070;52.382;5.270;2023-04-03T05:54:24;17.10;65.80
10062;DHT22;5070;52.382;5.270;2023-04-03T05:56:59;17.10;65.60
10062;DHT22;5070;52.382;5.270;2023-04-03T05:59:28;17.10;65.30
10062;DHT22;5070;52.382;5.270;2023-04-03T06:01:58;17.20;65.80
10062;DHT22;5070;52.382;5.270;2023-04-03T06:04:26;17.20;65.80
10062;DHT22;5070;52.382;5.270;2023-04-03T06:06:56;17.20;65.80
10062;DHT22;5070;52.382;5.270;2023-04-03T06:09:28;17.20;65.90
10062;DHT22;5070;52.382;5.270;2023-04-03T06:11:59;17.30;66.60
10062;DHT22;5070;52.382;5.270;2023-04-03T06:14:28;17.30;66.60
10062;DHT22;5070;52.382;5.270;2023-04-03T06:17:04;17.30;67.00
10062;DHT22;5070;52.382;5.270;2023-04-03T06:19:32;17.40;68.30
10062;DHT22;5070;52.382;5.270;2023-04-03T06:22:01;17.40;70.10
10062;DHT22;5070;52.382;5.270;2023-04-03T06:24:33;17.40;69.70
10062;DHT22;5070;52.382;5.270;2023-04-03T06:27:02;17.50;69.20
10062;DHT22;5070;52.382;5.270;2023-04-03T06:29:30;17.50;70.00
10062;DHT22;5070;52.382;5.270;2023-04-03T06:31:58;17.50;70.70
10062;DHT22;5070;52.382;5.270;2023-04-03T06:34:28;17.50;69.60
10062;DHT22;5070;52.382;5.270;2023-04-03T06:36:57;17.60;70.10
10062;DHT22;5070;52.382;5.270;2023-04-03T06:39:25;17.60;69.80
10062;DHT22;5070;52.382;5.270;2023-04-03T06:41:57;17.60;69.70
10062;DHT22;5070;52.382;5.270;2023-04-03T06:44:38;17.70;70.00
10062;DHT22;5070;52.382;5.270;2023-04-03T06:47:06;17.70;70.10
10062;DHT22;5070;52.382;5.270;2023-04-03T06:49:35;17.70;70.20
10062;DHT22;5070;52.382;5.270;2023-04-03T06:52:04;17.70;70.60
10062;DHT22;5070;52.382;5.270;2023-04-03T06:54:32;17.70;70.80
10062;DHT22;5070;52.382;5.270;2023-04-03T06:57:02;17.70;70.90
10062;DHT22;5070;52.382;5.270;2023-04-03T06:59:34;17.80;70.90
10062;DHT22;5070;52.382;5.270;2023-04-03T07:02:04;17.80;70.90
10062;DHT22;5070;52.382;5.270;2023-04-03T07:04:32;17.80;71.10
10062;DHT22;5070;52.382;5.270;2023-04-03T07:07:00;17.80;71.10
10062;DHT22;5070;52.382;5.270;2023-04-03T07:09:31;17.80;71.00
10062;DHT22;5070;52.382;5.270;2023-04-03T07:11:59;17.80;70.50
10062;DHT22;5070;52.382;5.270;2023-04-03T07:14:31;17.80;70.90
10062;DHT22;5070;52.382;5.270;2023-04-03T07:17:00;17.80;71.10
10062;DHT22;5070;52.382;5.270;2023-04-03T07:19:28;17.90;71.60
10062;DHT22;5070;52.382;5.270;2023-04-03T07:21:56;17.90;71.30
10062;DHT22;5070;52.382;5.270;2023-04-03T07:24:24;17.90;71.70
10062;DHT22;5070;52.382;5.270;2023-04-03T07:26:53;17.90;71.60
10062;DHT22;5070;52.382;5.270;2023-04-03T07:29:21;17.90;71.50
10062;DHT22;5070;52.382;5.270;2023-04-03T07:31:50;17.90;71.60
10062;DHT22;5070;52.382;5.270;2023-04-03T07:34:21;17.90;71.70
10062;DHT22;5070;52.382;5.270;2023-04-03T07:36:49;18.00;71.30
10062;DHT22;5070;52.382;5.270;2023-04-03T07:39:17;18.00;71.40
10062;DHT22;5070;52.382;5.270;2023-04-03T07:41:45;18.00;71.40
10062;DHT22;5070;52.382;5.270;2023-04-03T07:44:17;18.00;71.60
10062;DHT22;5070;52.382;5.270;2023-04-03T07:46:45;18.00;71.50
10062;DHT22;5070;52.382;5.270;2023-04-03T07:49:14;18.00;71.10
10062;DHT22;5070;52.382;5.270;2023-04-03T07:51:44;18.00;71.80
10062;DHT22;5070;52.382;5.270;2023-04-03T07:54:13;18.00;71.10
10062;DHT22;5070;52.382;5.270;2023-04-03T07:56:41;18.00;71.90
10062;DHT22;5070;52.382;5.270;2023-04-03T07:59:11;18.10;71.60
10062;DHT22;5070;52.382;5.270;2023-04-03T08:01:39;18.20;73.30
10062;DHT22;5070;52.382;5.270;2023-04-03T08:04:08;18.20;73.60
10062;DHT22;5070;52.382;5.270;2023-04-03T08:06:37;18.20;72.80
10062;DHT22;5070;52.382;5.270;2023-04-03T08:09:13;18.20;72.80
10062;DHT22;5070;52.382;5.270;2023-04-03T08:11:44;18.30;73.70
10062;DHT22;5070;52.382;5.270;2023-04-03T08:14:13;18.30;72.90
10062;DHT22;5070;52.382;5.270;2023-04-03T08:16:44;18.30;73.40
10062;DHT22;5070;52.382;5.270;2023-04-03T08:19:13;18.30;74.90
10062;DHT22;5070;52.382;5.270;2023-04-03T08:21:54;18.30;74.70
10062;DHT22;5070;52.382;5.270;2023-04-03T08:24:23;18.40;75.00
10062;DHT22;5070;52.382;5.270;2023-04-03T08:26:51;18.40;74.00
10062;DHT22;5070;52.382;5.270;2023-04-03T08:29:20;18.40;74.70
10062;DHT22;5070;52.382;5.270;2023-04-03T08:31:49;18.40;74.10
10062;DHT22;5070;52.382;5.270;2023-04-03T08:34:18;18.40;74.40
10062;DHT22;5070;52.382;5.270;2023-04-03T08:36:47;18.40;74.40
10062;DHT22;5070;52.382;5.270;2023-04-03T08:39:18;18.50;73.90
10062;DHT22;5070;52.382;5.270;2023-04-03T08:41:46;18.50;74.20
10062;DHT22;5070;52.382;5.270;2023-04-03T08:44:21;18.50;74.00
10062;DHT22;5070;52.382;5.270;2023-04-03T08:47:04;18.50;74.20
10062;DHT22;5070;52.382;5.270;2023-04-03T08:49:41;18.50;74.70
10062;DHT22;5070;52.382;5.270;2023-04-03T08:52:16;18.50;74.60
10062;DHT22;5070;52.382;5.270;2023-04-03T08:54:56;18.60;74.60
10062;DHT22;5070;52.382;5.270;2023-04-03T08:57:29;18.60;74.60
10062;DHT22;5070;52.382;5.270;2023-04-03T09:00:01;18.60;75.10
10062;DHT22;5070;52.382;5.270;2023-04-03T09:02:33;18.60;74.80
10062;DHT22;5070;52.382;5.270;2023-04-03T09:05:09;18.70;74.90
10062;DHT22;5070;52.382;5.270;2023-04-03T09:07:42;18.70;75.50
10062;DHT22;5070;52.382;5.270;2023-04-03T09:10:19;18.70;75.20
10062;DHT22;5070;52.382;5.270;2023-04-03T09:12:55;18.70;75.60
10062;DHT22;5070;52.382;5.270;2023-04-03T09:15:26;18.70;76.10
10062;DHT22;5070;52.382;5.270;2023-04-03T09:18:10;18.70;75.80
10062;DHT22;5070;52.382;5.270;2023-04-03T09:20:46;18.70;75.40
10062;DHT22;5070;52.382;5.270;2023-04-03T09:23:19;18.70;77.70
10062;DHT22;5070;52.382;5.270;2023-04-03T09:25:51;18.80;77.10
10062;DHT22;5070;52.382;5.270;2023-04-03T09:28:21;18.80;75.80
10062;DHT22;5070;52.382;5.270;2023-04-03T09:30:49;18.70;76.90
10062;DHT22;5070;52.382;5.270;2023-04-03T09:33:17;18.80;76.10
10062;DHT22;5070;52.382;5.270;2023-04-03T09:35:51;18.80;76.40
10062;DHT22;5070;52.382;5.270;2023-04-03T09:38:21;18.80;76.10
10062;DHT22;5070;52.382;5.270;2023-04-03T09:41:04;18.80;77.00
10062;DHT22;5070;52.382;5.270;2023-04-03T09:43:35;18.80;76.50
10062;DHT22;5070;52.382;5.270;2023-04-03T09:46:25;18.80;76.90
10062;DHT22;5070;52.382;5.270;2023-04-03T09:48:59;18.80;75.60
10062;DHT22;5070;52.382;5.270;2023-04-03T09:51:35;18.80;77.50
10062;DHT22;5070;52.382;5.270;2023-04-03T09:54:25;18.80;77.50
10062;DHT22;5070;52.382;5.270;2023-04-03T09:56:57;18.80;76.70
10062;DHT22;5070;52.382;5.270;2023-04-03T09:59:28;18.90;77.20
10062;DHT22;5070;52.382;5.270;2023-04-03T10:01:59;18.90;77.50
10062;DHT22;5070;52.382;5.270;2023-04-03T10:04:38;18.90;78.20
10062;DHT22;5070;52.382;5.270;2023-04-03T10:07:28;18.90;77.00
10062;DHT22;5070;52.382;5.270;2023-04-03T10:09:57;18.80;77.70
10062;DHT22;5070;52.382;5.270;2023-04-03T10:12:26;18.90;78.50
10062;DHT22;5070;52.382;5.270;2023-04-03T10:14:56;18.90;77.50
10062;DHT22;5070;52.382;5.270;2023-04-03T10:17:32;18.90;77.40
10062;DHT22;5070;52.382;5.270;2023-04-03T10:20:23;18.90;78.60
10062;DHT22;5070;52.382;5.270;2023-04-03T10:23:02;18.90;77.80
10062;DHT22;5070;52.382;5.270;2023-04-03T10:25:39;18.90;77.80
10062;DHT22;5070;52.382;5.270;2023-04-03T10:28:12;18.90;78.50
10062;DHT22;5070;52.382;5.270;2023-04-03T10:30:50;18.90;78.70
10062;DHT22;5070;52.382;5.270;2023-04-03T10:33:35;18.90;78.30
10062;DHT22;5070;52.382;5.270;2023-04-03T10:36:22;18.90;78.20
10062;DHT22;5070;52.382;5.270;2023-04-03T10:38:59;18.90;79.30
10062;DHT22;5070;52.382;5.270;2023-04-03T10:41:37;18.90;78.50
10062;DHT22;5070;52.382;5.270;2023-04-03T10:44:16;18.90;78.30
10062;DHT22;5070;52.382;5.270;2023-04-03T10:46:49;18.90;78.10
10062;DHT22;5070;52.382;5.270;2023-04-03T10:49:32;18.90;78.10
10062;DHT22;5070;52.382;5.270;2023-04-03T10:52:13;19.00;77.90
10062;DHT22;5070;52.382;5.270;2023-04-03T10:54:46;19.00;76.90
10062;DHT22;5070;52.382;5.270;2023-04-03T10:57:17;19.00;76.60
10062;DHT22;5070;52.382;5.270;2023-04-03T10:59:50;19.00;76.60
10062;DHT22;5070;52.382;5.270;2023-04-03T11:02:23;19.00;76.70
10062;DHT22;5070;52.382;5.270;2023-04-03T11:05:00;18.90;72.50
10062;DHT22;5070;52.382;5.270;2023-04-03T11:07:33;19.00;73.30
10062;DHT22;5070;52.382;5.270;2023-04-03T11:10:10;19.00;76.00
10062;DHT22;5070;52.382;5.270;2023-04-03T11:12:43;18.90;75.90
10062;DHT22;5070;52.382;5.270;2023-04-03T11:15:19;19.00;76.40
10062;DHT22;5070;52.382;5.270;2023-04-03T11:17:53;19.00;76.50
10062;DHT22;5070;52.382;5.270;2023-04-03T11:20:26;19.00;75.00
10062;DHT22;5070;52.382;5.270;2023-04-03T11:23:03;19.00;75.30
10062;DHT22;5070;52.382;5.270;2023-04-03T11:25:33;19.00;76.00
10062;DHT22;5070;52.382;5.270;2023-04-03T11:28:05;19.00;76.20
10062;DHT22;5070;52.382;5.270;2023-04-03T11:30:42;19.00;76.20
10062;DHT22;5070;52.382;5.270;2023-04-03T11:33:21;19.00;76.40
10062;DHT22;5070;52.382;5.270;2023-04-03T11:35:53;19.10;76.00
10062;DHT22;5070;52.382;5.270;2023-04-03T11:38:28;19.10;75.40
10062;DHT22;5070;52.382;5.270;2023-04-03T11:41:02;19.10;73.90
10062;DHT22;5070;52.382;5.270;2023-04-03T11:43:31;19.10;76.20
10062;DHT22;5070;52.382;5.270;2023-04-03T11:46:05;19.10;76.20
10062;DHT22;5070;52.382;5.270;2023-04-03T11:48:49;19.10;75.20
10062;DHT22;5070;52.382;5.270;2023-04-03T11:51:42;19.10;75.30
10062;DHT22;5070;52.382;5.270;2023-04-03T11:54:34;19.10;75.20
10062;DHT22;5070;52.382;5.270;2023-04-03T12:00:48;19.10;76.40
10062;DHT22;5070;52.382;5.270;2023-04-03T12:06:58;19.10;76.70
10062;DHT22;5070;52.382;5.270;2023-04-03T12:09:56;19.10;76.20
10062;DHT22;5070;52.382;5.270;2023-04-03T12:12:38;19.10;75.70
10062;DHT22;5070;52.382;5.270;2023-04-03T12:15:20;19.10;76.60
10062;DHT22;5070;52.382;5.270;2023-04-03T12:17:49;19.10;76.60
10062;DHT22;5070;52.382;5.270;2023-04-03T12:20:58;19.10;76.30
10062;DHT22;5070;52.382;5.270;2023-04-03T12:23:30;19.20;76.50
10062;DHT22;5070;52.382;5.270;2023-04-03T12:26:06;19.20;69.90
10062;DHT22;5070;52.382;5.270;2023-04-03T12:28:46;19.10;52.50
10062;DHT22;5070;52.382;5.270;2023-04-03T12:31:15;19.00;48.30
10062;DHT22;5070;52.382;5.270;2023-04-03T12:34:01;19.00;49.70
10062;DHT22;5070;52.382;5.270;2023-04-03T12:36:42;19.00;55.40
10062;DHT22;5070;52.382;5.270;2023-04-03T12:39:21;19.00;58.40
10062;DHT22;5070;52.382;5.270;2023-04-03T12:42:00;19.00;57.20
10062;DHT22;5070;52.382;5.270;2023-04-03T12:44:47;19.00;59.00
10062;DHT22;5070;52.382;5.270;2023-04-03T12:47:24;19.10;62.90
10062;DHT22;5070;52.382;5.270;2023-04-03T12:49:53;19.10;62.20
10062;DHT22;5070;52.382;5.270;2023-04-03T12:52:31;19.10;64.30
10062;DHT22;5070;52.382;5.270;2023-04-03T12:55:02;19.10;64.90
10062;DHT22;5070;52.382;5.270;2023-04-03T12:57:31;19.10;65.10
10062;DHT22;5070;52.382;5.270;2023-04-03T13:00:00;19.10;67.10
10062;DHT22;5070;52.382;5.270;2023-04-03T13:02:46;19.10;67.60
10062;DHT22;5070;52.382;5.270;2023-04-03T13:05:17;19.10;67.40
10062;DHT22;5070;52.382;5.270;2023-04-03T13:07:49;19.10;67.40
10062;DHT22;5070;52.382;5.270;2023-04-03T13:10:19;19.10;69.40
10062;DHT22;5070;52.382;5.270;2023-04-03T13:12:50;19.10;70.10
10062;DHT22;5070;52.382;5.270;2023-04-03T13:15:21;19.10;70.30
10062;DHT22;5070;52.382;5.270;2023-04-03T13:17:49;19.10;70.70
10062;DHT22;5070;52.382;5.270;2023-04-03T13:20:23;19.20;71.80
10062;DHT22;5070;52.382;5.270;2023-04-03T13:22:57;19.20;71.20
10062;DHT22;5070;52.382;5.270;2023-04-03T13:25:30;19.20;70.20
10062;DHT22;5070;52.382;5.270;2023-04-03T13:28:00;19.20;70.40
10062;DHT22;5070;52.382;5.270;2023-04-03T13:30:40;19.20;70.00
10062;DHT22;5070;52.382;5.270;2023-04-03T13:33:21;19.20;70.60
10062;DHT22;5070;52.382;5.270;2023-04-03T13:35:55;19.20;71.00
10062;DHT22;5070;52.382;5.270;2023-04-03T13:38:26;19.20;70.90
10062;DHT22;5070;52.382;5.270;2023-04-03T13:40:58;19.20;70.20
10062;DHT22;5070;52.382;5.270;2023-04-03T13:43:29;19.20;71.00
10062;DHT22;5070;52.382;5.270;2023-04-03T13:46:03;19.20;71.40
10062;DHT22;5070;52.382;5.270;2023-04-03T13:48:38;19.20;71.40
10062;DHT22;5070;52.382;5.270;2023-04-03T13:51:18;19.20;71.60
10062;DHT22;5070;52.382;5.270;2023-04-03T13:53:48;19.30;71.50
10062;DHT22;5070;52.382;5.270;2023-04-03T13:56:23;19.30;72.00
10062;DHT22;5070;52.382;5.270;2023-04-03T13:59:03;19.30;71.50
10062;DHT22;5070;52.382;5.270;2023-04-03T14:01:41;19.30;71.70
10062;DHT22;5070;52.382;5.270;2023-04-03T14:04:13;19.30;71.60
10062;DHT22;5070;52.382;5.270;2023-04-03T14:06:41;19.30;71.70
10062;DHT22;5070;52.382;5.270;2023-04-03T14:09:10;19.30;71.50
10062;DHT22;5070;52.382;5.270;2023-04-03T14:11:41;19.40;72.10
10062;DHT22;5070;52.382;5.270;2023-04-03T14:14:14;19.40;68.60
10062;DHT22;5070;52.382;5.270;2023-04-03T14:16:46;19.30;61.90
10062;DHT22;5070;52.382;5.270;2023-04-03T14:19:19;19.30;68.20
10062;DHT22;5070;52.382;5.270;2023-04-03T14:21:49;19.30;62.10
10062;DHT22;5070;52.382;5.270;2023-04-03T14:24:19;19.30;67.70
10062;DHT22;5070;52.382;5.270;2023-04-03T14:26:51;19.40;70.30
10062;DHT22;5070;52.382;5.270;2023-04-03T14:29:20;19.40;71.20
10062;DHT22;5070;52.382;5.270;2023-04-03T14:31:50;19.40;71.70
10062;DHT22;5070;52.382;5.270;2023-04-03T14:34:37;19.50;70.90
10062;DHT22;5070;52.382;5.270;2023-04-03T14:37:06;19.50;70.90
10062;DHT22;5070;52.382;5.270;2023-04-03T14:39:37;19.50;71.20
10062;DHT22;5070;52.382;5.270;2023-04-03T14:42:12;19.50;71.20
10062;DHT22;5070;52.382;5.270;2023-04-03T14:44:43;19.50;71.50
10062;DHT22;5070;52.382;5.270;2023-04-03T14:47:12;19.50;71.80
10062;DHT22;5070;52.382;5.270;2023-04-03T14:49:57;19.50;71.60
10062;DHT22;5070;52.382;5.270;2023-04-03T14:52:28;19.50;72.10
10062;DHT22;5070;52.382;5.270;2023-04-03T14:54:57;19.50;72.30
10062;DHT22;5070;52.382;5.270;2023-04-03T14:57:29;19.50;71.40
10062;DHT22;5070;52.382;5.270;2023-04-03T14:59:58;19.50;72.30
10062;DHT22;5070;52.382;5.270;2023-04-03T15:02:30;19.50;72.60
10062;DHT22;5070;52.382;5.270;2023-04-03T15:04:59;19.50;72.70
10062;DHT22;5070;52.382;5.270;2023-04-03T15:07:31;19.60;72.10
10062;DHT22;5070;52.382;5.270;2023-04-03T15:10:02;19.60;72.90
10062;DHT22;5070;52.382;5.270;2023-04-03T15:12:32;19.60;72.80
10062;DHT22;5070;52.382;5.270;2023-04-03T15:15:00;19.60;73.10
10062;DHT22;5070;52.382;5.270;2023-04-03T15:17:34;19.60;73.00
10062;DHT22;5070;52.382;5.270;2023-04-03T15:20:13;19.60;73.40
10062;DHT22;5070;52.382;5.270;2023-04-03T15:22:41;19.60;72.30
10062;DHT22;5070;52.382;5.270;2023-04-03T15:25:10;19.60;73.50
10062;DHT22;5070;52.382;5.270;2023-04-03T15:27:41;19.60;72.80
10062;DHT22;5070;52.382;5.270;2023-04-03T15:30:15;19.60;73.40
10062;DHT22;5070;52.382;5.270;2023-04-03T15:32:43;19.60;73.00
10062;DHT22;5070;52.382;5.270;2023-04-03T15:35:12;19.60;73.40
10062;DHT22;5070;52.382;5.270;2023-04-03T15:37:51;19.70;74.00
10062;DHT22;5070;52.382;5.270;2023-04-03T15:40:19;19.70;73.50
10062;DHT22;5070;52.382;5.270;2023-04-03T15:42:47;19.70;73.80
10062;DHT22;5070;52.382;5.270;2023-04-03T15:45:18;19.70;73.70
10062;DHT22;5070;52.382;5.270;2023-04-03T15:47:47;19.70;73.80
10062;DHT22;5070;52.382;5.270;2023-04-03T15:50:16;19.70;74.00
10062;DHT22;5070;52.382;5.270;2023-04-03T15:52:44;19.80;74.40
10062;DHT22;5070;52.382;5.270;2023-04-03T15:55:14;19.80;73.20
10062;DHT22;5070;52.382;5.270;2023-04-03T15:57:42;19.80;74.20
10062;DHT22;5070;52.382;5.270;2023-04-03T16:00:12;19.80;74.20
10062;DHT22;5070;52.382;5.270;2023-04-03T16:02:41;19.80;74.10
10062;DHT22;5070;52.382;5.270;2023-04-03T16:05:10;19.80;74.50
10062;DHT22;5070;52.382;5.270;2023-04-03T16:07:39;19.80;73.90
10062;DHT22;5070;52.382;5.270;2023-04-03T16:10:09;19.70;74.50
10062;DHT22;5070;52.382;5.270;2023-04-03T16:12:39;19.80;73.50
10062;DHT22;5070;52.382;5.270;2023-04-03T16:15:10;19.80;74.50
10062;DHT22;5070;52.382;5.270;2023-04-03T16:17:39;19.80;74.30
10062;DHT22;5070;52.382;5.270;2023-04-03T16:20:09;19.80;74.90
10062;DHT22;5070;52.382;5.270;2023-04-03T16:22:38;19.80;75.20